createdAt,value
2023-04-06T00:01:19.961Z,39.01
2023-04-06T00:06:26.423Z,38.96
2023-04-06T00:11:31.319Z,37.88
2023-04-06T00:16:36.466Z,37.33
2023-04-06T00:21:42.306Z,36.57
2023-04-06T00:26:47.464Z,35.45
2023-04-06T00:31:52.182Z,34.19
2023-04-06T00:36:58.956Z,34.32
2023-04-06T00:42:12.343Z,33.69
2023-04-06T00:47:16.902Z,33.88
2023-04-06T00:52:22.233Z,32.53
2023-04-06T00:57:27.837Z,33.74
2023-04-06T01:02:34.399Z,32.54
2023-04-06T01:07:40.436Z,32.31
2023-04-06T01:12:52.908Z,32.21
2023-04-06T01:18:19.497Z,32.85
2023-04-06T01:23:34.995Z,31.83
2023-04-06T01:28:41.798Z,32.29
2023-04-06T01:34:01.542Z,30.19
2023-04-06T01:39:07.401Z,31.31
2023-04-06T01:44:16.654Z,30.13
2023-04-06T01:49:24.241Z,29.78
2023-04-06T01:54:33.171Z,31.67
2023-04-06T01:59:49.444Z,30.09
2023-04-06T02:05:18.016Z,29.54
2023-04-06T02:10:24.413Z,30.67
2023-04-06T02:15:30.631Z,29.35
2023-04-06T02:20:38.329Z,29.25
2023-04-06T02:25:44.027Z,27.18
2023-04-06T02:30:49.301Z,26.68
2023-04-06T02:35:55.839Z,27.49
2023-04-06T02:41:01.813Z,28.73
2023-04-06T02:46:09.757Z,26.89
2023-04-06T02:51:17.385Z,26.92
2023-04-06T02:56:28.914Z,27.08
2023-04-06T03:01:34.665Z,26.42
2023-04-06T03:06:42.773Z,26.11
2023-04-06T03:12:00.759Z,26.18
2023-04-06T03:17:08.409Z,26.31
2023-04-06T03:22:15.060Z,26.82
2023-04-06T03:27:21.538Z,25.49
2023-04-06T03:32:31.468Z,25.63
2023-04-06T03:37:38.033Z,25.17
2023-04-06T03:42:44.838Z,26.38
2023-04-06T03:47:53.219Z,25.56
2023-04-06T03:52:58.803Z,24.83
2023-04-06T03:58:06.033Z,26.26
2023-04-06T04:03:11.665Z,27.24
2023-04-06T04:08:17.109Z,26.93
2023-04-06T04:13:22.871Z,26.65
2023-04-06T04:18:30.101Z,26.51
2023-04-06T04:23:37.320Z,27.12
2023-04-06T04:28:42.939Z,27.94
2023-04-06T04:33:48.528Z,27.31
2023-04-06T04:39:03.419Z,26.69
2023-04-06T04:44:14.748Z,26.48
2023-04-06T04:49:20.547Z,26.78
2023-04-06T04:54:27.876Z,26.77
2023-04-06T04:59:35.297Z,26.65
2023-04-06T05:04:49.865Z,27.20
2023-04-06T05:09:59.650Z,26.31
2023-04-06T05:15:09.312Z,26.65
2023-04-06T05:20:16.042Z,26.24
2023-04-06T05:25:26.963Z,25.28
2023-04-06T05:30:37.930Z,24.20
2023-04-06T05:35:43.847Z,24.68
2023-04-06T05:40:51.547Z,24.54
2023-04-06T05:46:02.587Z,24.46
2023-04-06T05:51:10.894Z,24.80
2023-04-06T05:56:26.098Z,25.16
2023-04-06T06:01:31.737Z,25.16
2023-04-06T06:06:37.929Z,25.69
2023-04-06T06:11:53.373Z,25.04
2023-04-06T06:17:02.958Z,24.46
2023-04-06T06:22:08.576Z,24.55
2023-04-06T06:27:18.568Z,24.40
2023-04-06T06:32:25.125Z,24.65
2023-04-06T06:37:32.420Z,25.64
2023-04-06T06:42:40.081Z,22.28
2023-04-06T06:48:02.481Z,22.29
2023-04-06T06:53:08.235Z,21.84
2023-04-06T06:58:13.514Z,21.48
2023-04-06T07:03:18.951Z,22.37
2023-04-06T07:08:25.197Z,22.21
2023-04-06T07:13:30.128Z,22.20
2023-04-06T07:18:40.636Z,22.02
2023-04-06T07:23:47.087Z,23.02
2023-04-06T07:28:52.312Z,22.76
2023-04-06T07:33:58.547Z,22.63
2023-04-06T07:39:03.660Z,23.20
2023-04-06T07:44:09.730Z,23.82
2023-04-06T07:49:15.760Z,23.70
2023-04-06T07:54:21.987Z,23.13
2023-04-06T07:59:27.046Z,23.86
2023-04-06T08:04:33.086Z,22.41
2023-04-06T08:09:37.878Z,21.98
2023-04-06T08:14:42.614Z,22.07
2023-04-06T08:19:47.792Z,21.15
2023-04-06T08:24:53.304Z,20.90
2023-04-06T08:29:58.200Z,23.15
2023-04-06T08:35:03.021Z,21.90
2023-04-06T08:40:08.628Z,21.70
2023-04-06T08:45:14.070Z,22.27
2023-04-06T08:50:20.422Z,22.64
2023-04-06T08:55:25.829Z,24.41
2023-04-06T09:00:32.027Z,23.63
2023-04-06T09:05:37.893Z,21.22
2023-04-06T09:10:44.571Z,24.94
2023-04-06T09:15:49.175Z,21.83
2023-04-06T09:21:03.470Z,21.99
2023-04-06T09:26:15.990Z,21.10
2023-04-06T09:31:25.803Z,21.64
2023-04-06T09:36:40.642Z,21.67
2023-04-06T09:41:51.410Z,21.19
2023-04-06T09:47:00.959Z,21.37
2023-04-06T09:52:09.476Z,21.48
2023-04-06T09:57:27.015Z,20.48
2023-04-06T10:02:37.047Z,21.23
2023-04-06T10:07:57.198Z,21.02
2023-04-06T10:13:04.717Z,21.73
2023-04-06T10:18:09.975Z,22.16
2023-04-06T10:23:18.207Z,22.67
2023-04-06T10:28:23.077Z,22.67
2023-04-06T10:33:28.632Z,23.08
2023-04-06T10:38:42.084Z,22.57
2023-04-06T10:43:59.534Z,22.24
2023-04-06T10:49:15.712Z,21.77
2023-04-06T10:54:21.458Z,22.61
2023-04-06T10:59:27.670Z,22.50
2023-04-06T11:04:33.292Z,23.13
2023-04-06T11:09:38.854Z,23.27
2023-04-06T11:14:43.979Z,23.67
2023-04-06T11:19:48.263Z,22.69
2023-04-06T11:24:53.476Z,23.96
2023-04-06T11:29:58.131Z,22.71
2023-04-06T11:35:02.962Z,22.61
2023-04-06T11:40:11.772Z,22.42
2023-04-06T11:45:18.794Z,21.04
2023-04-06T11:50:23.554Z,21.65
2023-04-06T11:55:29.576Z,21.74
2023-04-06T12:00:36.942Z,21.81
2023-04-06T12:05:42.588Z,22.27
2023-04-06T12:10:47.262Z,22.58
2023-04-06T12:15:53.631Z,23.27
2023-04-06T12:20:58.437Z,23.29
2023-04-06T12:26:05.508Z,22.57
2023-04-06T12:31:18.662Z,23.44
2023-04-06T12:36:24.920Z,23.64
2023-04-06T12:41:31.941Z,24.08
2023-04-06T12:46:40.351Z,24.36
2023-04-06T12:51:48.610Z,25.17
2023-04-06T12:56:54.962Z,24.66
2023-04-06T13:02:01.113Z,24.39
2023-04-06T13:07:06.115Z,24.66
2023-04-06T13:12:13.792Z,25.54
2023-04-06T13:17:19.167Z,24.99
2023-04-06T13:22:24.043Z,25.65
2023-04-06T13:27:29.668Z,25.79
2023-04-06T13:32:36.768Z,26.26
2023-04-06T13:37:43.200Z,25.38
2023-04-06T13:42:48.575Z,25.88
2023-04-06T13:47:54.392Z,26.24
2023-04-06T13:53:00.306Z,26.08
2023-04-06T13:58:05.272Z,26.06
2023-04-06T14:03:10.421Z,26.06
2023-04-06T14:08:16.793Z,25.45
2023-04-06T14:13:23.470Z,25.50
2023-04-06T14:18:31.395Z,24.99
2023-04-06T14:23:36.410Z,25.53
2023-04-06T14:28:41.668Z,25.01
2023-04-06T14:33:48.117Z,25.15
2023-04-06T14:38:54.376Z,23.91
2023-04-06T14:43:59.467Z,24.81
2023-04-06T14:49:04.419Z,24.74
2023-04-06T14:54:12.476Z,24.45
2023-04-06T14:59:19.406Z,24.71
2023-04-06T15:04:24.401Z,24.67
2023-04-06T15:09:29.465Z,24.82
2023-04-06T15:14:34.931Z,25.52
2023-04-06T15:19:40.872Z,25.49
2023-04-06T15:24:47.439Z,25.42
2023-04-06T15:29:52.735Z,25.36
2023-04-06T15:35:00.517Z,25.66
2023-04-06T15:40:10.426Z,25.88
2023-04-06T15:45:15.462Z,26.00
2023-04-06T15:50:21.610Z,26.10
2023-04-06T15:55:26.786Z,26.24
2023-04-06T16:00:32.730Z,26.92
2023-04-06T16:05:48.312Z,26.26
2023-04-06T16:11:02.365Z,27.25
2023-04-06T16:16:08.113Z,27.71
2023-04-06T16:21:20.704Z,27.56
2023-04-06T16:26:25.604Z,27.95
2023-04-06T16:31:30.348Z,28.40
2023-04-06T16:36:35.876Z,28.53
2023-04-06T16:41:41.193Z,29.93
2023-04-06T16:46:46.441Z,28.91
2023-04-06T16:51:51.506Z,29.98
2023-04-06T16:56:56.380Z,30.91
2023-04-06T17:02:01.289Z,30.85
2023-04-06T17:07:06.324Z,30.22
2023-04-06T17:12:11.496Z,29.61
2023-04-06T17:17:16.344Z,29.21
2023-04-06T17:22:22.951Z,29.24
2023-04-06T17:27:29.267Z,29.25
2023-04-06T17:32:35.302Z,29.23
2023-04-06T17:37:40.398Z,29.35
2023-04-06T17:42:45.233Z,28.99
2023-04-06T17:47:49.992Z,29.44
2023-04-06T17:52:54.745Z,30.14
2023-04-06T17:57:59.647Z,30.07
2023-04-06T18:03:04.475Z,30.48
2023-04-06T18:08:09.212Z,31.29
2023-04-06T18:13:13.363Z,32.42
2023-04-06T18:18:19.771Z,32.30
2023-04-06T18:23:24.707Z,31.43
2023-04-06T18:28:29.751Z,33.17
2023-04-06T18:33:35.054Z,32.57
2023-04-06T18:38:44.398Z,32.40
2023-04-06T18:43:49.372Z,32.31
2023-04-06T18:48:54.391Z,32.12
2023-04-06T18:54:00.561Z,32.92
2023-04-06T18:59:05.535Z,32.78
2023-04-06T19:04:10.582Z,32.87
2023-04-06T19:09:15.610Z,32.61
2023-04-06T19:14:20.083Z,34.79
2023-04-06T19:19:24.981Z,32.92
2023-04-06T19:24:31.036Z,33.77
2023-04-06T19:29:39.945Z,33.71
2023-04-06T19:34:46.616Z,34.25
2023-04-06T19:39:51.344Z,33.98
2023-04-06T19:44:57.453Z,34.52
2023-04-06T19:50:04.290Z,33.97
2023-04-06T19:55:10.446Z,33.68
2023-04-06T20:00:15.573Z,34.44
2023-04-06T20:05:20.229Z,34.83
2023-04-06T20:10:25.111Z,34.63
2023-04-06T20:15:30.866Z,33.56
2023-04-06T20:20:35.602Z,33.84
2023-04-06T20:25:41.702Z,33.52
2023-04-06T20:30:46.665Z,33.45
2023-04-06T20:36:02.453Z,33.36
2023-04-06T20:41:09.634Z,32.55
2023-04-06T20:46:20.915Z,31.43
2023-04-06T20:51:26.900Z,30.87
2023-04-06T20:56:33.283Z,31.01
2023-04-06T21:01:38.684Z,30.50
2023-04-06T21:06:45.174Z,30.09
2023-04-06T21:11:50.211Z,30.24
2023-04-06T21:16:57.068Z,30.17
2023-04-06T21:22:02.421Z,30.28
2023-04-06T21:27:07.713Z,29.96
2023-04-06T21:32:12.930Z,30.41
2023-04-06T21:37:19.267Z,29.54
2023-04-06T21:42:25.748Z,29.58
2023-04-06T21:47:31.120Z,29.10
2023-04-06T21:52:36.414Z,28.41
2023-04-06T21:57:41.612Z,27.02
2023-04-06T22:02:48.405Z,26.90
2023-04-06T22:07:54.603Z,26.37
2023-04-06T22:12:59.975Z,24.99
2023-04-06T22:18:05.234Z,24.82
2023-04-06T22:23:12.560Z,24.88
2023-04-06T22:28:17.997Z,25.21
2023-04-06T22:33:23.333Z,25.21
2023-04-06T22:38:28.463Z,25.10
2023-04-06T22:43:33.626Z,24.32
2023-04-06T22:48:38.781Z,24.96
2023-04-06T22:53:44.214Z,25.32
2023-04-06T22:58:49.466Z,23.95
2023-04-06T23:03:54.674Z,21.50
2023-04-06T23:09:00.053Z,21.61
2023-04-06T23:14:05.224Z,22.47
2023-04-06T23:19:11.291Z,25.28
2023-04-06T23:24:17.032Z,22.97
2023-04-06T23:29:22.440Z,24.24
2023-04-06T23:34:28.567Z,21.79
2023-04-06T23:39:33.907Z,22.48
2023-04-06T23:44:39.203Z,24.99
2023-04-06T23:49:44.650Z,23.57
2023-04-06T23:54:49.777Z,22.09
2023-04-06T23:59:54.962Z,21.10
